Startpagina
METAR-TAF:

METAR-TAF

Vliegvelden :

Vientiane, Laos

breedte: 17-57N, lengte: 102-34E, hoogte: 171 m

Actueel weer

Dit bericht is 5 uur en het 21 minuten geleden gemaakt, om 16:30 UTC
Weinig wind
Temperatuur 19°C
Vochtigheid 88%
Druk 1012 hPa
Zicht: 3000 m
nevel

METAR: VLVT 181630Z 00000KT 3000 BR NSC 19/17 Q1012 NOSIG

Tijdstip: 04:51 (21:51 UTC)

Verwachting

Dit bericht is 4 uur en het 51 minuten geleden gemaakt, om 17:00 UTC
Verwachting geldig van 18 om 18 UTC tot 19 om 18 UTC
Wind 4 kt uit het oostnoordoosten
Zicht: 4000 m
Weinig wolken op 5000 ft
Weinig wolken op 20000 ft
nevel
Tijdelijke
van 18 om 23 UTC tot 19 om 05 UTC
Zicht: 5000 m
Verspreide wolken op 5000 ft
Weinig wolken op 20000 ft
nevel

TAF: VLVT 181700Z 1818/1918 06004KT 4000 BR FEW050 FEW200 TEMPO 1823/1905 5000 BR SCT050 FEW200

Waarnemingen en weersverwachtingen van meer dan 4000 vliegvelden (METAR en TAF).

De beschikbare stations zijn de gele en rode punten op de kaart.

Ga met uw muis naar het station om de naam te zien.

Klik dan om waarnemingen en weersverwachtingen te zien.

kaart wijzigen: klik op de groene knoppen met een zwart kruis om in te zoomen, op de groene knop met een streepje om uit te zoomen of op de groene pijlen voor aangrenzende kaarten.


METAR-TAF: